sensor_id;sensor_type;location;lat;lon;timestamp;temperature;humidity
48488;DHT22;34289;48.572;13.378;2023-08-12T01:24:39;13.60;99.90
48488;DHT22;34289;48.572;13.378;2023-08-12T01:32:36;13.30;99.90
48488;DHT22;34289;48.572;13.378;2023-08-12T01:35:16;12.90;99.90
48488;DHT22;34289;48.572;13.378;2023-08-12T05:24:08;24.40;99.90
48488;DHT22;34289;48.572;13.378;2023-08-12T05:26:34;23.80;99.90
48488;DHT22;34289;48.572;13.378;2023-08-12T05:28:59;24.20;99.90
48488;DHT22;34289;48.572;13.378;2023-08-12T05:48:28;23.50;99.90
48488;DHT22;34289;48.572;13.378;2023-08-12T05:53:21;28.60;99.90
48488;DHT22;34289;48.572;13.378;2023-08-12T05:55:47;30.10;99.90
48488;DHT22;34289;48.572;13.378;2023-08-12T05:58:13;30.30;99.90
48488;DHT22;34289;48.572;13.378;2023-08-12T06:00:38;30.40;97.00
48488;DHT22;34289;48.572;13.378;2023-08-12T06:03:04;31.30;96.40
48488;DHT22;34289;48.572;13.378;2023-08-12T06:05:29;32.50;95.20
48488;DHT22;34289;48.572;13.378;2023-08-12T06:07:55;33.80;93.60
48488;DHT22;34289;48.572;13.378;2023-08-12T06:10:21;34.20;92.60
48488;DHT22;34289;48.572;13.378;2023-08-12T06:12:46;34.20;93.70
48488;DHT22;34289;48.572;13.378;2023-08-12T06:15:12;34.30;91.80
48488;DHT22;34289;48.572;13.378;2023-08-12T06:17:37;34.40;91.30
48488;DHT22;34289;48.572;13.378;2023-08-12T06:20:03;34.50;90.70
48488;DHT22;34289;48.572;13.378;2023-08-12T06:22:29;33.70;91.50
48488;DHT22;34289;48.572;13.378;2023-08-12T06:24:55;31.50;92.60
48488;DHT22;34289;48.572;13.378;2023-08-12T06:27:20;28.60;96.00
48488;DHT22;34289;48.572;13.378;2023-08-12T06:29:46;26.40;98.00
48488;DHT22;34289;48.572;13.378;2023-08-12T06:32:12;23.90;99.90
48488;DHT22;34289;48.572;13.378;2023-08-12T06:34:40;22.30;99.90
48488;DHT22;34289;48.572;13.378;2023-08-12T06:37:06;21.40;99.90
48488;DHT22;34289;48.572;13.378;2023-08-12T06:39:31;20.70;99.90
48488;DHT22;34289;48.572;13.378;2023-08-12T06:41:57;20.90;99.90
48488;DHT22;34289;48.572;13.378;2023-08-12T06:44:24;21.30;99.90
48488;DHT22;34289;48.572;13.378;2023-08-12T06:46:50;21.40;99.90
48488;DHT22;34289;48.572;13.378;2023-08-12T06:49:15;21.60;99.90
48488;DHT22;34289;48.572;13.378;2023-08-12T06:51:41;21.70;99.90
48488;DHT22;34289;48.572;13.378;2023-08-12T06:54:07;21.70;99.90
48488;DHT22;34289;48.572;13.378;2023-08-12T06:56:32;21.80;99.90
48488;DHT22;34289;48.572;13.378;2023-08-12T06:58:58;21.90;99.90
48488;DHT22;34289;48.572;13.378;2023-08-12T07:01:23;22.00;99.90
48488;DHT22;34289;48.572;13.378;2023-08-12T07:03:49;22.20;99.90
48488;DHT22;34289;48.572;13.378;2023-08-12T07:06:15;22.00;99.90
48488;DHT22;34289;48.572;13.378;2023-08-12T07:08:40;21.90;99.90
48488;DHT22;34289;48.572;13.378;2023-08-12T07:11:06;21.80;99.90
48488;DHT22;34289;48.572;13.378;2023-08-12T07:13:31;21.90;99.90
48488;DHT22;34289;48.572;13.378;2023-08-12T07:15:58;22.00;99.90
48488;DHT22;34289;48.572;13.378;2023-08-12T07:18:24;22.00;99.90
48488;DHT22;34289;48.572;13.378;2023-08-12T07:20:50;22.00;99.90
48488;DHT22;34289;48.572;13.378;2023-08-12T07:23:15;22.10;99.90
48488;DHT22;34289;48.572;13.378;2023-08-12T07:25:41;22.10;99.90
48488;DHT22;34289;48.572;13.378;2023-08-12T07:28:07;22.10;99.90
48488;DHT22;34289;48.572;13.378;2023-08-12T07:30:34;22.00;99.90
48488;DHT22;34289;48.572;13.378;2023-08-12T07:33:01;22.10;99.90
48488;DHT22;34289;48.572;13.378;2023-08-12T07:35:27;22.00;99.90
48488;DHT22;34289;48.572;13.378;2023-08-12T07:37:52;22.10;99.90
48488;DHT22;34289;48.572;13.378;2023-08-12T07:40:18;22.10;99.90
48488;DHT22;34289;48.572;13.378;2023-08-12T07:42:43;22.50;99.90
48488;DHT22;34289;48.572;13.378;2023-08-12T07:45:09;22.20;99.90
48488;DHT22;34289;48.572;13.378;2023-08-12T07:47:35;22.40;99.90
48488;DHT22;34289;48.572;13.378;2023-08-12T07:50:00;22.60;99.90
48488;DHT22;34289;48.572;13.378;2023-08-12T07:52:26;22.80;99.90
48488;DHT22;34289;48.572;13.378;2023-08-12T07:54:51;22.90;99.90
48488;DHT22;34289;48.572;13.378;2023-08-12T07:57:17;23.20;99.90
48488;DHT22;34289;48.572;13.378;2023-08-12T07:59:43;23.30;99.90
48488;DHT22;34289;48.572;13.378;2023-08-12T08:02:08;23.10;99.90
48488;DHT22;34289;48.572;13.378;2023-08-12T08:04:34;23.20;99.90
48488;DHT22;34289;48.572;13.378;2023-08-12T08:07:00;23.30;99.90
48488;DHT22;34289;48.572;13.378;2023-08-12T08:09:26;23.30;99.90
48488;DHT22;34289;48.572;13.378;2023-08-12T08:11:51;23.40;99.90
48488;DHT22;34289;48.572;13.378;2023-08-12T08:14:17;23.50;99.90
48488;DHT22;34289;48.572;13.378;2023-08-12T08:16:42;23.50;99.90
48488;DHT22;34289;48.572;13.378;2023-08-12T08:19:08;23.70;99.90
48488;DHT22;34289;48.572;13.378;2023-08-12T08:21:35;23.80;99.90
48488;DHT22;34289;48.572;13.378;2023-08-12T08:24:01;24.00;99.90
48488;DHT22;34289;48.572;13.378;2023-08-12T08:26:27;24.20;99.90
48488;DHT22;34289;48.572;13.378;2023-08-12T08:28:52;24.30;99.90
48488;DHT22;34289;48.572;13.378;2023-08-12T08:31:18;24.30;99.90
48488;DHT22;34289;48.572;13.378;2023-08-12T08:33:44;24.30;99.90
48488;DHT22;34289;48.572;13.378;2023-08-12T08:36:10;24.50;99.90
48488;DHT22;34289;48.572;13.378;2023-08-12T08:38:36;24.70;99.90
48488;DHT22;34289;48.572;13.378;2023-08-12T08:41:03;25.00;99.90
48488;DHT22;34289;48.572;13.378;2023-08-12T08:43:32;25.30;99.90
48488;DHT22;34289;48.572;13.378;2023-08-12T08:46:01;25.20;99.90
48488;DHT22;34289;48.572;13.378;2023-08-12T08:48:27;25.00;99.90
48488;DHT22;34289;48.572;13.378;2023-08-12T08:50:53;25.20;99.90
48488;DHT22;34289;48.572;13.378;2023-08-12T08:53:20;25.40;99.90
48488;DHT22;34289;48.572;13.378;2023-08-12T08:55:46;25.70;99.90
48488;DHT22;34289;48.572;13.378;2023-08-12T08:58:11;25.90;99.90
48488;DHT22;34289;48.572;13.378;2023-08-12T09:00:38;25.70;99.90
48488;DHT22;34289;48.572;13.378;2023-08-12T09:03:05;25.80;99.90
48488;DHT22;34289;48.572;13.378;2023-08-12T09:05:32;25.90;99.90
48488;DHT22;34289;48.572;13.378;2023-08-12T09:07:59;26.20;99.90
48488;DHT22;34289;48.572;13.378;2023-08-12T09:10:27;26.10;99.90
48488;DHT22;34289;48.572;13.378;2023-08-12T09:12:55;26.50;99.90
48488;DHT22;34289;48.572;13.378;2023-08-12T09:15:21;26.30;99.90
48488;DHT22;34289;48.572;13.378;2023-08-12T09:17:47;26.40;99.90
48488;DHT22;34289;48.572;13.378;2023-08-12T09:20:12;26.50;99.90
48488;DHT22;34289;48.572;13.378;2023-08-12T09:22:41;26.40;99.90
48488;DHT22;34289;48.572;13.378;2023-08-12T09:25:08;26.60;99.90
48488;DHT22;34289;48.572;13.378;2023-08-12T09:27:36;26.50;99.90
48488;DHT22;34289;48.572;13.378;2023-08-12T09:30:03;26.60;99.90
48488;DHT22;34289;48.572;13.378;2023-08-12T09:32:29;26.40;99.90
48488;DHT22;34289;48.572;13.378;2023-08-12T09:34:55;26.60;99.90
48488;DHT22;34289;48.572;13.378;2023-08-12T09:37:23;26.70;99.90
48488;DHT22;34289;48.572;13.378;2023-08-12T09:39:50;26.90;99.90
48488;DHT22;34289;48.572;13.378;2023-08-12T09:42:17;27.10;99.90
48488;DHT22;34289;48.572;13.378;2023-08-12T09:44:43;27.30;99.90
48488;DHT22;34289;48.572;13.378;2023-08-12T09:47:10;27.60;99.90
48488;DHT22;34289;48.572;13.378;2023-08-12T09:49:36;27.50;99.90
48488;DHT22;34289;48.572;13.378;2023-08-12T09:52:03;27.60;99.90
48488;DHT22;34289;48.572;13.378;2023-08-12T09:54:31;27.70;99.90
48488;DHT22;34289;48.572;13.378;2023-08-12T09:56:59;27.70;99.90
48488;DHT22;34289;48.572;13.378;2023-08-12T09:59:33;27.20;99.90
48488;DHT22;34289;48.572;13.378;2023-08-12T10:02:03;27.90;99.90
48488;DHT22;34289;48.572;13.378;2023-08-12T10:04:39;27.90;99.90
48488;DHT22;34289;48.572;13.378;2023-08-12T10:07:07;28.00;99.90
48488;DHT22;34289;48.572;13.378;2023-08-12T10:09:36;28.20;99.90
48488;DHT22;34289;48.572;13.378;2023-08-12T10:12:03;28.20;99.90
48488;DHT22;34289;48.572;13.378;2023-08-12T10:14:29;27.90;99.40
48488;DHT22;34289;48.572;13.378;2023-08-12T10:16:55;28.10;99.90
48488;DHT22;34289;48.572;13.378;2023-08-12T10:19:22;28.20;98.60
48488;DHT22;34289;48.572;13.378;2023-08-12T10:21:55;28.30;99.10
48488;DHT22;34289;48.572;13.378;2023-08-12T10:24:26;28.20;99.40
48488;DHT22;34289;48.572;13.378;2023-08-12T10:26:53;28.20;98.10
48488;DHT22;34289;48.572;13.378;2023-08-12T10:29:20;28.40;99.40
48488;DHT22;34289;48.572;13.378;2023-08-12T10:31:47;28.40;99.00
48488;DHT22;34289;48.572;13.378;2023-08-12T10:34:23;28.50;99.90
48488;DHT22;34289;48.572;13.378;2023-08-12T10:36:57;28.50;99.90
48488;DHT22;34289;48.572;13.378;2023-08-12T10:39:31;28.50;99.10
48488;DHT22;34289;48.572;13.378;2023-08-12T10:41:57;29.40;99.30
48488;DHT22;34289;48.572;13.378;2023-08-12T10:44:37;28.50;99.90
48488;DHT22;34289;48.572;13.378;2023-08-12T10:47:08;28.50;99.50
48488;DHT22;34289;48.572;13.378;2023-08-12T10:49:38;28.30;99.90
48488;DHT22;34289;48.572;13.378;2023-08-12T10:52:04;27.90;99.90
48488;DHT22;34289;48.572;13.378;2023-08-12T10:54:30;27.90;99.90
48488;DHT22;34289;48.572;13.378;2023-08-12T11:02:29;28.50;98.20
48488;DHT22;34289;48.572;13.378;2023-08-12T11:05:02;28.80;98.90
48488;DHT22;34289;48.572;13.378;2023-08-12T11:10:16;28.80;99.30
48488;DHT22;34289;48.572;13.378;2023-08-12T11:15:16;28.80;98.10
48488;DHT22;34289;48.572;13.378;2023-08-12T11:17:42;28.90;98.10
48488;DHT22;34289;48.572;13.378;2023-08-12T11:20:10;29.00;97.90
48488;DHT22;34289;48.572;13.378;2023-08-12T11:22:38;29.00;98.90
48488;DHT22;34289;48.572;13.378;2023-08-12T11:25:06;29.00;98.40
48488;DHT22;34289;48.572;13.378;2023-08-12T11:27:44;29.00;98.20
48488;DHT22;34289;48.572;13.378;2023-08-12T11:30:12;29.20;97.30
48488;DHT22;34289;48.572;13.378;2023-08-12T11:32:44;29.30;99.90
48488;DHT22;34289;48.572;13.378;2023-08-12T11:35:11;29.10;97.90
48488;DHT22;34289;48.572;13.378;2023-08-12T11:37:38;29.40;96.80
48488;DHT22;34289;48.572;13.378;2023-08-12T11:40:06;29.50;97.50
48488;DHT22;34289;48.572;13.378;2023-08-12T11:42:34;29.80;97.30
48488;DHT22;34289;48.572;13.378;2023-08-12T11:45:00;29.80;96.80
48488;DHT22;34289;48.572;13.378;2023-08-12T11:47:25;30.00;98.20
48488;DHT22;34289;48.572;13.378;2023-08-12T11:49:52;30.00;96.00
48488;DHT22;34289;48.572;13.378;2023-08-12T11:52:19;29.90;97.60
48488;DHT22;34289;48.572;13.378;2023-08-12T11:54:45;29.80;97.40
48488;DHT22;34289;48.572;13.378;2023-08-12T11:57:11;29.90;98.90
48488;DHT22;34289;48.572;13.378;2023-08-12T11:59:37;30.00;96.70
48488;DHT22;34289;48.572;13.378;2023-08-12T12:02:03;30.10;97.80
48488;DHT22;34289;48.572;13.378;2023-08-12T12:04:32;30.10;97.40
48488;DHT22;34289;48.572;13.378;2023-08-12T12:06:58;30.30;96.70
48488;DHT22;34289;48.572;13.378;2023-08-12T12:09:25;30.40;96.60
48488;DHT22;34289;48.572;13.378;2023-08-12T12:11:55;30.40;96.30
48488;DHT22;34289;48.572;13.378;2023-08-12T12:14:21;30.40;96.80
48488;DHT22;34289;48.572;13.378;2023-08-12T12:16:48;30.50;96.00
48488;DHT22;34289;48.572;13.378;2023-08-12T12:19:22;30.60;98.30
48488;DHT22;34289;48.572;13.378;2023-08-12T12:21:49;30.50;96.60
48488;DHT22;34289;48.572;13.378;2023-08-12T12:24:16;30.50;96.70
48488;DHT22;34289;48.572;13.378;2023-08-12T12:26:42;30.60;94.90
48488;DHT22;34289;48.572;13.378;2023-08-12T12:29:08;30.30;97.00
48488;DHT22;34289;48.572;13.378;2023-08-12T12:31:34;30.20;96.70
48488;DHT22;34289;48.572;13.378;2023-08-12T12:34:01;30.40;96.40
48488;DHT22;34289;48.572;13.378;2023-08-12T12:36:28;30.50;96.90
48488;DHT22;34289;48.572;13.378;2023-08-12T12:38:54;30.70;95.50
48488;DHT22;34289;48.572;13.378;2023-08-12T12:41:19;30.80;94.40
48488;DHT22;34289;48.572;13.378;2023-08-12T12:43:45;30.50;94.80
48488;DHT22;34289;48.572;13.378;2023-08-12T12:46:11;30.80;95.40
48488;DHT22;34289;48.572;13.378;2023-08-12T12:48:37;30.90;94.00
48488;DHT22;34289;48.572;13.378;2023-08-12T12:51:02;30.80;94.00
48488;DHT22;34289;48.572;13.378;2023-08-12T12:53:28;30.50;93.80
48488;DHT22;34289;48.572;13.378;2023-08-12T12:55:53;30.10;94.50
48488;DHT22;34289;48.572;13.378;2023-08-12T12:58:19;30.10;94.60
48488;DHT22;34289;48.572;13.378;2023-08-12T13:00:47;30.10;95.40
48488;DHT22;34289;48.572;13.378;2023-08-12T13:03:13;30.10;95.00
48488;DHT22;34289;48.572;13.378;2023-08-12T13:05:38;30.10;95.70
48488;DHT22;34289;48.572;13.378;2023-08-12T13:08:05;30.10;95.10
48488;DHT22;34289;48.572;13.378;2023-08-12T13:10:30;30.00;95.20
48488;DHT22;34289;48.572;13.378;2023-08-12T13:12:56;29.80;95.20
48488;DHT22;34289;48.572;13.378;2023-08-12T13:15:22;29.70;93.80
48488;DHT22;34289;48.572;13.378;2023-08-12T13:17:49;29.60;94.50
48488;DHT22;34289;48.572;13.378;2023-08-12T13:20:15;29.70;94.00
48488;DHT22;34289;48.572;13.378;2023-08-12T13:22:40;29.80;96.70
48488;DHT22;34289;48.572;13.378;2023-08-12T13:25:06;30.00;93.70
48488;DHT22;34289;48.572;13.378;2023-08-12T13:27:32;30.20;93.60
48488;DHT22;34289;48.572;13.378;2023-08-12T13:29:58;30.20;93.60
48488;DHT22;34289;48.572;13.378;2023-08-12T13:32:23;30.30;94.50
48488;DHT22;34289;48.572;13.378;2023-08-12T13:34:49;30.30;92.50
48488;DHT22;34289;48.572;13.378;2023-08-12T13:37:14;30.30;92.50
48488;DHT22;34289;48.572;13.378;2023-08-12T13:39:40;30.40;92.20
48488;DHT22;34289;48.572;13.378;2023-08-12T13:42:06;30.50;91.90
48488;DHT22;34289;48.572;13.378;2023-08-12T13:44:31;30.60;93.10
48488;DHT22;34289;48.572;13.378;2023-08-12T13:46:57;30.60;90.40
48488;DHT22;34289;48.572;13.378;2023-08-12T13:49:22;30.50;90.10
48488;DHT22;34289;48.572;13.378;2023-08-12T13:51:48;30.50;92.10
48488;DHT22;34289;48.572;13.378;2023-08-12T13:54:13;30.60;91.60
48488;DHT22;34289;48.572;13.378;2023-08-12T13:56:39;30.50;90.90
48488;DHT22;34289;48.572;13.378;2023-08-12T13:59:05;30.50;91.90
48488;DHT22;34289;48.572;13.378;2023-08-12T14:01:30;30.50;93.90
48488;DHT22;34289;48.572;13.378;2023-08-12T14:03:56;30.50;92.40
48488;DHT22;34289;48.572;13.378;2023-08-12T14:06:21;30.40;91.40
48488;DHT22;34289;48.572;13.378;2023-08-12T14:08:47;30.50;92.40
48488;DHT22;34289;48.572;13.378;2023-08-12T14:11:12;30.60;92.20
48488;DHT22;34289;48.572;13.378;2023-08-12T14:13:38;30.60;92.20
48488;DHT22;34289;48.572;13.378;2023-08-12T14:16:03;30.60;90.90
48488;DHT22;34289;48.572;13.378;2023-08-12T14:18:29;30.50;91.10
48488;DHT22;34289;48.572;13.378;2023-08-12T14:20:55;30.40;90.60
48488;DHT22;34289;48.572;13.378;2023-08-12T14:23:20;30.30;90.40
48488;DHT22;34289;48.572;13.378;2023-08-12T14:25:46;30.40;92.10
48488;DHT22;34289;48.572;13.378;2023-08-12T14:28:11;30.30;91.40
48488;DHT22;34289;48.572;13.378;2023-08-12T14:30:37;30.40;92.10
48488;DHT22;34289;48.572;13.378;2023-08-12T14:33:03;30.30;91.80
48488;DHT22;34289;48.572;13.378;2023-08-12T14:35:28;30.40;93.00
48488;DHT22;34289;48.572;13.378;2023-08-12T14:37:54;30.40;90.30
48488;DHT22;34289;48.572;13.378;2023-08-12T14:40:19;30.40;90.70
48488;DHT22;34289;48.572;13.378;2023-08-12T14:42:45;30.50;93.70
48488;DHT22;34289;48.572;13.378;2023-08-12T14:45:11;30.50;91.40
48488;DHT22;34289;48.572;13.378;2023-08-12T14:47:36;30.30;91.90
48488;DHT22;34289;48.572;13.378;2023-08-12T14:50:02;30.20;91.30
48488;DHT22;34289;48.572;13.378;2023-08-12T14:52:29;30.10;92.10
48488;DHT22;34289;48.572;13.378;2023-08-12T14:54:55;30.20;91.60
48488;DHT22;34289;48.572;13.378;2023-08-12T14:57:21;30.20;91.30
48488;DHT22;34289;48.572;13.378;2023-08-12T14:59:46;30.20;91.70
48488;DHT22;34289;48.572;13.378;2023-08-12T15:02:16;30.20;92.10
48488;DHT22;34289;48.572;13.378;2023-08-12T15:04:42;30.10;90.10
48488;DHT22;34289;48.572;13.378;2023-08-12T15:07:08;30.10;90.90
48488;DHT22;34289;48.572;13.378;2023-08-12T15:09:33;30.10;90.40
48488;DHT22;34289;48.572;13.378;2023-08-12T15:11:59;30.00;91.50
48488;DHT22;34289;48.572;13.378;2023-08-12T15:14:25;30.00;91.40
48488;DHT22;34289;48.572;13.378;2023-08-12T15:16:51;30.00;91.40
48488;DHT22;34289;48.572;13.378;2023-08-12T15:19:17;30.10;91.80
48488;DHT22;34289;48.572;13.378;2023-08-12T15:21:42;30.10;93.60
48488;DHT22;34289;48.572;13.378;2023-08-12T15:24:08;30.10;91.50
48488;DHT22;34289;48.572;13.378;2023-08-12T15:26:34;30.20;92.90
48488;DHT22;34289;48.572;13.378;2023-08-12T15:28:59;30.10;91.40
48488;DHT22;34289;48.572;13.378;2023-08-12T15:31:25;30.10;91.10
48488;DHT22;34289;48.572;13.378;2023-08-12T15:33:50;30.00;90.60
48488;DHT22;34289;48.572;13.378;2023-08-12T15:36:16;30.00;91.90
48488;DHT22;34289;48.572;13.378;2023-08-12T15:38:41;30.00;91.80
48488;DHT22;34289;48.572;13.378;2023-08-12T15:41:16;30.00;91.30
48488;DHT22;34289;48.572;13.378;2023-08-12T15:43:42;29.90;92.00
48488;DHT22;34289;48.572;13.378;2023-08-12T15:46:08;29.90;92.80
48488;DHT22;34289;48.572;13.378;2023-08-12T15:48:34;29.90;92.90
48488;DHT22;34289;48.572;13.378;2023-08-12T15:51:00;29.80;93.30
48488;DHT22;34289;48.572;13.378;2023-08-12T15:53:26;29.70;92.90
48488;DHT22;34289;48.572;13.378;2023-08-12T15:55:52;29.60;93.20
48488;DHT22;34289;48.572;13.378;2023-08-12T15:58:18;29.50;94.30
48488;DHT22;34289;48.572;13.378;2023-08-12T16:00:45;29.40;93.40
48488;DHT22;34289;48.572;13.378;2023-08-12T16:03:14;29.30;94.00
48488;DHT22;34289;48.572;13.378;2023-08-12T16:05:41;29.20;94.40
48488;DHT22;34289;48.572;13.378;2023-08-12T16:08:06;29.10;96.60
48488;DHT22;34289;48.572;13.378;2023-08-12T16:10:34;29.00;96.70
48488;DHT22;34289;48.572;13.378;2023-08-12T16:13:00;28.80;98.70
48488;DHT22;34289;48.572;13.378;2023-08-12T16:15:25;28.70;99.40
48488;DHT22;34289;48.572;13.378;2023-08-12T16:17:52;28.20;99.40
48488;DHT22;34289;48.572;13.378;2023-08-12T16:20:18;28.30;99.90
48488;DHT22;34289;48.572;13.378;2023-08-12T16:22:43;27.80;99.90
48488;DHT22;34289;48.572;13.378;2023-08-12T16:25:09;27.80;99.90
48488;DHT22;34289;48.572;13.378;2023-08-12T16:27:35;27.60;99.90
48488;DHT22;34289;48.572;13.378;2023-08-12T16:30:01;27.50;99.90
48488;DHT22;34289;48.572;13.378;2023-08-12T16:32:26;27.40;99.90
48488;DHT22;34289;48.572;13.378;2023-08-12T16:34:52;27.40;99.90
48488;DHT22;34289;48.572;13.378;2023-08-12T16:37:17;27.30;99.90
48488;DHT22;34289;48.572;13.378;2023-08-12T16:39:43;27.10;99.90
48488;DHT22;34289;48.572;13.378;2023-08-12T16:42:09;26.90;99.90
48488;DHT22;34289;48.572;13.378;2023-08-12T16:44:34;26.80;99.90
48488;DHT22;34289;48.572;13.378;2023-08-12T16:47:00;26.90;99.90
48488;DHT22;34289;48.572;13.378;2023-08-12T16:49:25;26.90;99.90
48488;DHT22;34289;48.572;13.378;2023-08-12T16:51:51;26.80;99.90
48488;DHT22;34289;48.572;13.378;2023-08-12T16:54:16;26.80;99.90
48488;DHT22;34289;48.572;13.378;2023-08-12T16:56:42;26.80;99.90
48488;DHT22;34289;48.572;13.378;2023-08-12T16:59:08;26.80;99.90
48488;DHT22;34289;48.572;13.378;2023-08-12T17:01:34;26.80;99.90
48488;DHT22;34289;48.572;13.378;2023-08-12T17:03:59;26.80;99.90
48488;DHT22;34289;48.572;13.378;2023-08-12T17:06:26;26.90;99.90
48488;DHT22;34289;48.572;13.378;2023-08-12T17:08:52;26.20;99.90
48488;DHT22;34289;48.572;13.378;2023-08-12T17:11:19;26.90;99.90
48488;DHT22;34289;48.572;13.378;2023-08-12T17:13:45;26.80;99.90
48488;DHT22;34289;48.572;13.378;2023-08-12T17:16:11;26.60;99.90
48488;DHT22;34289;48.572;13.378;2023-08-12T17:18:37;26.40;99.90
48488;DHT22;34289;48.572;13.378;2023-08-12T17:21:02;26.30;99.90
48488;DHT22;34289;48.572;13.378;2023-08-12T17:23:28;26.20;99.90
48488;DHT22;34289;48.572;13.378;2023-08-12T17:25:54;26.10;99.90
48488;DHT22;34289;48.572;13.378;2023-08-12T17:28:19;26.00;99.90
48488;DHT22;34289;48.572;13.378;2023-08-12T17:30:45;25.90;99.90
48488;DHT22;34289;48.572;13.378;2023-08-12T17:33:11;25.80;99.90
48488;DHT22;34289;48.572;13.378;2023-08-12T17:35:36;25.70;99.90
48488;DHT22;34289;48.572;13.378;2023-08-12T17:38:02;25.50;99.90
48488;DHT22;34289;48.572;13.378;2023-08-12T17:40:27;25.30;99.90
48488;DHT22;34289;48.572;13.378;2023-08-12T17:42:53;24.90;99.90
48488;DHT22;34289;48.572;13.378;2023-08-12T17:45:19;24.80;99.90
48488;DHT22;34289;48.572;13.378;2023-08-12T17:47:59;24.80;99.90
48488;DHT22;34289;48.572;13.378;2023-08-12T17:50:25;24.80;99.90
48488;DHT22;34289;48.572;13.378;2023-08-12T17:52:51;24.80;99.90
48488;DHT22;34289;48.572;13.378;2023-08-12T17:55:17;24.80;99.90
48488;DHT22;34289;48.572;13.378;2023-08-12T17:57:43;24.70;99.90
48488;DHT22;34289;48.572;13.378;2023-08-12T18:00:10;24.70;99.90
48488;DHT22;34289;48.572;13.378;2023-08-12T18:02:35;24.60;99.90
48488;DHT22;34289;48.572;13.378;2023-08-12T18:05:01;24.60;99.90
48488;DHT22;34289;48.572;13.378;2023-08-12T18:07:27;24.50;99.90
48488;DHT22;34289;48.572;13.378;2023-08-12T18:09:52;24.50;99.90
48488;DHT22;34289;48.572;13.378;2023-08-12T18:12:18;24.40;99.90
48488;DHT22;34289;48.572;13.378;2023-08-12T18:14:44;24.50;99.90
48488;DHT22;34289;48.572;13.378;2023-08-12T18:17:10;24.40;99.90
48488;DHT22;34289;48.572;13.378;2023-08-12T18:19:35;24.20;99.90
48488;DHT22;34289;48.572;13.378;2023-08-12T18:22:01;24.10;99.90
48488;DHT22;34289;48.572;13.378;2023-08-12T18:24:27;24.00;99.90
48488;DHT22;34289;48.572;13.378;2023-08-12T18:26:53;24.10;99.90
48488;DHT22;34289;48.572;13.378;2023-08-12T18:29:19;24.10;99.90
48488;DHT22;34289;48.572;13.378;2023-08-12T18:31:44;24.00;99.90
48488;DHT22;34289;48.572;13.378;2023-08-12T18:34:10;23.80;99.90
48488;DHT22;34289;48.572;13.378;2023-08-12T18:36:35;23.80;99.90
48488;DHT22;34289;48.572;13.378;2023-08-12T18:39:01;23.80;99.90
48488;DHT22;34289;48.572;13.378;2023-08-12T18:41:26;23.70;99.90
48488;DHT22;34289;48.572;13.378;2023-08-12T18:43:52;23.80;99.90
48488;DHT22;34289;48.572;13.378;2023-08-12T18:46:18;23.60;99.90
48488;DHT22;34289;48.572;13.378;2023-08-12T18:48:43;23.40;99.90
48488;DHT22;34289;48.572;13.378;2023-08-12T18:51:09;23.20;99.90
48488;DHT22;34289;48.572;13.378;2023-08-12T18:53:34;23.20;99.90
48488;DHT22;34289;48.572;13.378;2023-08-12T18:56:00;23.20;99.90
48488;DHT22;34289;48.572;13.378;2023-08-12T18:58:26;23.30;99.90
48488;DHT22;34289;48.572;13.378;2023-08-12T19:00:51;23.20;99.90
48488;DHT22;34289;48.572;13.378;2023-08-12T19:03:17;23.00;99.90
48488;DHT22;34289;48.572;13.378;2023-08-12T19:05:43;23.10;99.90
48488;DHT22;34289;48.572;13.378;2023-08-12T19:08:10;23.20;99.90
48488;DHT22;34289;48.572;13.378;2023-08-12T19:10:40;23.00;99.90
48488;DHT22;34289;48.572;13.378;2023-08-12T19:13:08;23.00;99.90
48488;DHT22;34289;48.572;13.378;2023-08-12T19:15:34;22.90;99.90
48488;DHT22;34289;48.572;13.378;2023-08-12T19:17:59;22.90;99.90
48488;DHT22;34289;48.572;13.378;2023-08-12T19:20:25;22.80;99.90
48488;DHT22;34289;48.572;13.378;2023-08-12T19:22:51;22.20;99.90
48488;DHT22;34289;48.572;13.378;2023-08-12T19:25:17;22.20;99.90
48488;DHT22;34289;48.572;13.378;2023-08-12T19:27:43;22.00;99.90
48488;DHT22;34289;48.572;13.378;2023-08-12T19:30:09;22.10;99.90
48488;DHT22;34289;48.572;13.378;2023-08-12T19:32:51;22.10;99.90
48488;DHT22;34289;48.572;13.378;2023-08-12T19:35:17;22.00;99.90
48488;DHT22;34289;48.572;13.378;2023-08-12T19:37:43;20.70;99.90
48488;DHT22;34289;48.572;13.378;2023-08-12T19:40:09;21.80;99.90
48488;DHT22;34289;48.572;13.378;2023-08-12T19:42:35;21.90;99.90
48488;DHT22;34289;48.572;13.378;2023-08-12T19:45:02;21.90;99.90
48488;DHT22;34289;48.572;13.378;2023-08-12T19:47:28;21.90;99.90
48488;DHT22;34289;48.572;13.378;2023-08-12T19:49:54;21.90;99.90
48488;DHT22;34289;48.572;13.378;2023-08-12T19:52:19;21.80;99.90
48488;DHT22;34289;48.572;13.378;2023-08-12T19:54:45;21.80;99.90
48488;DHT22;34289;48.572;13.378;2023-08-12T19:57:11;21.80;99.90
48488;DHT22;34289;48.572;13.378;2023-08-12T19:59:36;21.80;99.90
48488;DHT22;34289;48.572;13.378;2023-08-12T20:02:02;21.60;99.90
48488;DHT22;34289;48.572;13.378;2023-08-12T20:04:29;21.50;99.90
48488;DHT22;34289;48.572;13.378;2023-08-12T20:06:56;21.40;99.90
48488;DHT22;34289;48.572;13.378;2023-08-12T20:09:21;20.50;99.90
48488;DHT22;34289;48.572;13.378;2023-08-12T20:11:47;21.40;99.90
48488;DHT22;34289;48.572;13.378;2023-08-12T20:14:13;21.40;99.90
48488;DHT22;34289;48.572;13.378;2023-08-12T20:16:38;21.30;99.90
48488;DHT22;34289;48.572;13.378;2023-08-12T20:19:05;21.30;99.90
48488;DHT22;34289;48.572;13.378;2023-08-12T20:21:30;20.10;99.90
48488;DHT22;34289;48.572;13.378;2023-08-12T20:23:56;21.20;99.90
48488;DHT22;34289;48.572;13.378;2023-08-12T20:26:22;21.10;99.90
48488;DHT22;34289;48.572;13.378;2023-08-12T20:28:48;20.70;99.90
48488;DHT22;34289;48.572;13.378;2023-08-12T20:31:14;20.60;99.90
48488;DHT22;34289;48.572;13.378;2023-08-12T20:33:40;20.60;99.90
48488;DHT22;34289;48.572;13.378;2023-08-12T20:36:06;20.50;99.90
48488;DHT22;34289;48.572;13.378;2023-08-12T20:38:32;20.40;99.90
48488;DHT22;34289;48.572;13.378;2023-08-12T20:40:58;20.20;99.90
48488;DHT22;34289;48.572;13.378;2023-08-12T20:43:24;20.10;99.90
48488;DHT22;34289;48.572;13.378;2023-08-12T20:45:50;20.20;99.90
48488;DHT22;34289;48.572;13.378;2023-08-12T20:48:17;20.10;99.90
48488;DHT22;34289;48.572;13.378;2023-08-12T20:50:43;20.20;99.90
48488;DHT22;34289;48.572;13.378;2023-08-12T20:53:09;20.10;99.90
48488;DHT22;34289;48.572;13.378;2023-08-12T20:55:35;20.20;99.90